KRWI/RWI METAR and TAF weather

Enter ICAO airport designator
Station Type Date Time Source
KRWI METAR 2019/05/20 10:53 UTC NOAA

KRWI 201053Z AUTO 20005KT 10SM FEW007 21/19 A3003 RMK AO2 SLP166 T02060194


Station Type Date Time Source
KRWI Decoded METAR 2019/05/20 10:53 UTC NOAA

ROCKY MOUNT-WILSON AIRPORT, NC, United States (KRWI) 35-51N 077-54W 47M
May 20, 2019 - 06:53 AM EDT / 2019.05.20 1053 UTC
Wind: from the SSW (200 degrees) at 6 MPH (5 KT):0
Visibility: 10 mile(s):0
Sky conditions: mostly clear
Temperature: 69.1 F (20.6 C)
Dew Point: 66.9 F (19.4 C)
Relative Humidity: 92%
Pressure (altimeter): 30.03 in. Hg (1016 hPa)
ob: KRWI 201053Z AUTO 20005KT 10SM FEW007 21/19 A3003 RMK AO2 SLP166 T02060194
cycle: 11

Station Type Date Time Source
KRWI TAF 2019/05/20 08:18 UTC NOAA

TAF
AMD KRWI 200817Z 2008/2106 21008KT P6SM FEW015 SCT250
TEMPO 2008/2011 BKN011
FM201400 23010G18KT P6SM FEW250
FM201900 23009G16KT P6SM SCT050 SCT200
FM210000 22005KT P6SM SCT200
FM210200 21006KT P6SM VCTS SCT040CB BKN120

Example: see airport list